ART9019 EKCH-ESGG
Flight info
| Callsign | ART9019 |
|---|---|
| Flight time | 0h 33m |
| Altitude | 22000 |
| Route | VEDAR L997 RISMA |
| Aircraft | A20N/M-SDE2E3FGHIRWXY/LB1 |
Departure
| Time | 2026-05-04 17:06 |
|---|---|
| Airport | Copenhagen Kastrup Airport (EKCH) |
Arrival
| Time | 2026-05-04 17:40 |
|---|---|
| Airport | Göteborg Landvetter Airport (ESGG) |
| Time | Latitude | Longitude | Altitude | Speed | Heading |
|---|---|---|---|---|---|
| 2026-05-04 16:29 | 55.62702 | 12.64167 | 20 ft | 0 kts | 33° |
| 2026-05-04 16:56 | 55.62678 | 12.64141 | 21 ft | 2 kts | 33° |
| 2026-05-04 16:57 | 55.62666 | 12.64126 | 21 ft | 2 kts | 33° |
| 2026-05-04 16:57 | 55.62647 | 12.64087 | 21 ft | 2 kts | 85° |
| 2026-05-04 16:58 | 55.62666 | 12.64017 | 21 ft | 2 kts | 123° |
| 2026-05-04 16:58 | 55.62674 | 12.63996 | 21 ft | 1 kts | 122° |
| 2026-05-04 16:59 | 55.62674 | 12.63994 | 21 ft | 0 kts | 122° |
| 2026-05-04 17:00 | 55.62671 | 12.64002 | 21 ft | 2 kts | 123° |
| 2026-05-04 17:01 | 55.62625 | 12.64128 | 21 ft | 9 kts | 123° |
| 2026-05-04 17:01 | 55.62532 | 12.64379 | 20 ft | 13 kts | 124° |
| 2026-05-04 17:02 | 55.62412 | 12.64460 | 21 ft | 11 kts | 194° |
| 2026-05-04 17:02 | 55.62242 | 12.64377 | 21 ft | 13 kts | 198° |
| 2026-05-04 17:03 | 55.62150 | 12.64305 | 21 ft | 14 kts | 206° |
| 2026-05-04 17:03 | 55.62054 | 12.64223 | 22 ft | 15 kts | 205° |
| 2026-05-04 17:03 | 55.61849 | 12.64067 | 22 ft | 16 kts | 183° |
| 2026-05-04 17:04 | 55.61752 | 12.64079 | 22 ft | 0 kts | 176° |
| 2026-05-04 17:04 | 55.61741 | 12.64080 | 22 ft | 2 kts | 176° |
| 2026-05-04 17:05 | 55.61668 | 12.64087 | 22 ft | 11 kts | 181° |
| 2026-05-04 17:05 | 55.61152 | 12.63338 | 23 ft | 113 kts | 221° |
| 2026-05-04 17:06 | 55.59554 | 12.60926 | 872 ft | 163 kts | 223° |
| 2026-05-04 17:06 | 55.58659 | 12.59691 | 1617 ft | 168 kts | 223° |
| 2026-05-04 17:07 | 55.56783 | 12.56677 | 2713 ft | 199 kts | 230° |
| 2026-05-04 17:07 | 55.56230 | 12.55357 | 2997 ft | 210 kts | 253° |
| 2026-05-04 17:07 | 55.56240 | 12.51841 | 3789 ft | 228 kts | 282° |
| 2026-05-04 17:07 | 55.56515 | 12.49005 | 4413 ft | 245 kts | 280° |
| 2026-05-04 17:08 | 55.56771 | 12.45995 | 5279 ft | 253 kts | 279° |
| 2026-05-04 17:08 | 55.57965 | 12.40231 | 7247 ft | 262 kts | 317° |
| 2026-05-04 17:08 | 55.59627 | 12.38734 | 7925 ft | 282 kts | 343° |
| 2026-05-04 17:09 | 55.61637 | 12.38231 | 8500 ft | 300 kts | 349° |
| 2026-05-04 17:09 | 55.63721 | 12.37753 | 9283 ft | 308 kts | 348° |
| 2026-05-04 17:09 | 55.65842 | 12.37229 | 10171 ft | 312 kts | 347° |
| 2026-05-04 17:10 | 55.70166 | 12.36083 | 11924 ft | 319 kts | 346° |
| 2026-05-04 17:10 | 55.76923 | 12.34218 | 14393 ft | 331 kts | 345° |
| 2026-05-04 17:11 | 55.79214 | 12.33578 | 15194 ft | 335 kts | 345° |
| 2026-05-04 17:11 | 55.81513 | 12.32934 | 15955 ft | 338 kts | 345° |
| 2026-05-04 17:11 | 55.86206 | 12.31617 | 17427 ft | 345 kts | 345° |
| 2026-05-04 17:12 | 55.88676 | 12.30921 | 17911 ft | 348 kts | 345° |
| 2026-05-04 17:12 | 55.93498 | 12.29560 | 18423 ft | 350 kts | 345° |
| 2026-05-04 17:13 | 56.00781 | 12.27491 | 20016 ft | 358 kts | 345° |
| 2026-05-04 17:14 | 56.08332 | 12.25336 | 21784 ft | 367 kts | 345° |
| 2026-05-04 17:14 | 56.10859 | 12.24618 | 21907 ft | 368 kts | 345° |
| 2026-05-04 17:14 | 56.15966 | 12.23164 | 21912 ft | 367 kts | 345° |
| 2026-05-04 17:15 | 56.18468 | 12.22449 | 21911 ft | 367 kts | 345° |
| 2026-05-04 17:15 | 56.23490 | 12.21009 | 21908 ft | 367 kts | 345° |
| 2026-05-04 17:16 | 56.28538 | 12.19555 | 21909 ft | 367 kts | 345° |
| 2026-05-04 17:16 | 56.36071 | 12.17380 | 21907 ft | 367 kts | 345° |
| 2026-05-04 17:17 | 56.38567 | 12.16657 | 21906 ft | 367 kts | 345° |
| 2026-05-04 17:17 | 56.46107 | 12.14464 | 21907 ft | 367 kts | 345° |
| 2026-05-04 17:18 | 56.48613 | 12.13734 | 21905 ft | 366 kts | 345° |
| 2026-05-04 17:18 | 56.53655 | 12.12264 | 21906 ft | 366 kts | 345° |
| 2026-05-04 17:19 | 56.58669 | 12.10860 | 21904 ft | 367 kts | 345° |
| 2026-05-04 17:19 | 56.63676 | 12.09465 | 21904 ft | 367 kts | 345° |
| 2026-05-04 17:20 | 56.68713 | 12.08051 | 21899 ft | 367 kts | 345° |
| 2026-05-04 17:20 | 56.73716 | 12.06643 | 21893 ft | 366 kts | 345° |
| 2026-05-04 17:20 | 56.76235 | 12.05932 | 21889 ft | 366 kts | 345° |
| 2026-05-04 17:21 | 56.81261 | 12.04507 | 21888 ft | 366 kts | 345° |
| 2026-05-04 17:21 | 56.86256 | 12.03087 | 21399 ft | 363 kts | 345° |
| 2026-05-04 17:22 | 56.88724 | 12.02387 | 21134 ft | 362 kts | 345° |
| 2026-05-04 17:22 | 56.91195 | 12.01683 | 20778 ft | 360 kts | 345° |
| 2026-05-04 17:23 | 56.98528 | 11.99590 | 19571 ft | 352 kts | 345° |
| 2026-05-04 17:23 | 57.00976 | 11.99286 | 19093 ft | 360 kts | 358° |
| 2026-05-04 17:23 | 57.05936 | 12.00756 | 17976 ft | 366 kts | 4° |
| 2026-05-04 17:24 | 57.08421 | 12.01589 | 17462 ft | 364 kts | 3° |
| 2026-05-04 17:24 | 57.15722 | 12.03834 | 16482 ft | 342 kts | 2° |
| 2026-05-04 17:25 | 57.18023 | 12.04504 | 16233 ft | 333 kts | 2° |
| 2026-05-04 17:25 | 57.22488 | 12.05779 | 15574 ft | 323 kts | 1° |
| 2026-05-04 17:26 | 57.27027 | 12.07039 | 14264 ft | 334 kts | 1° |
| 2026-05-04 17:26 | 57.33842 | 12.08967 | 12728 ft | 335 kts | 2° |
| 2026-05-04 17:27 | 57.38429 | 12.10264 | 11749 ft | 332 kts | 2° |
| 2026-05-04 17:27 | 57.42909 | 12.11542 | 10913 ft | 325 kts | 2° |
| 2026-05-04 17:28 | 57.47363 | 12.12811 | 10413 ft | 321 kts | 2° |
| 2026-05-04 17:29 | 57.53835 | 12.14660 | 9032 ft | 315 kts | 3° |
| 2026-05-04 17:29 | 57.60076 | 12.16459 | 8169 ft | 292 kts | 3° |
| 2026-05-04 17:30 | 57.65870 | 12.18127 | 7400 ft | 271 kts | 3° |
| 2026-05-04 17:31 | 57.69514 | 12.19177 | 6896 ft | 260 kts | 2° |
| 2026-05-04 17:31 | 57.74690 | 12.20672 | 6136 ft | 246 kts | 2° |
| 2026-05-04 17:32 | 57.78016 | 12.21634 | 5608 ft | 239 kts | 2° |
| 2026-05-04 17:33 | 57.82732 | 12.24366 | 4722 ft | 243 kts | 21° |
| 2026-05-04 17:33 | 57.84217 | 12.25858 | 4448 ft | 240 kts | 22° |
| 2026-05-04 17:34 | 57.87238 | 12.32547 | 3826 ft | 244 kts | 86° |
| 2026-05-04 17:34 | 57.87223 | 12.35746 | 3640 ft | 244 kts | 90° |
| 2026-05-04 17:35 | 57.85414 | 12.43245 | 3099 ft | 205 kts | 178° |
| 2026-05-04 17:35 | 57.82884 | 12.42509 | 2967 ft | 182 kts | 198° |
| 2026-05-04 17:35 | 57.81630 | 12.42105 | 2963 ft | 181 kts | 205° |
| 2026-05-04 17:36 | 57.80490 | 12.41183 | 2958 ft | 176 kts | 216° |
| 2026-05-04 17:36 | 57.79432 | 12.40076 | 2949 ft | 170 kts | 216° |
| 2026-05-04 17:36 | 57.78413 | 12.39056 | 2836 ft | 162 kts | 215° |
| 2026-05-04 17:36 | 57.77414 | 12.38107 | 2614 ft | 161 kts | 214° |
| 2026-05-04 17:37 | 57.76400 | 12.37173 | 2413 ft | 164 kts | 213° |
| 2026-05-04 17:37 | 57.75385 | 12.36256 | 2254 ft | 161 kts | 213° |
| 2026-05-04 17:37 | 57.74383 | 12.35352 | 2043 ft | 160 kts | 213° |
| 2026-05-04 17:37 | 57.73415 | 12.34498 | 1838 ft | 154 kts | 214° |
| 2026-05-04 17:38 | 57.72485 | 12.33638 | 1651 ft | 142 kts | 215° |
| 2026-05-04 17:38 | 57.71628 | 12.32826 | 1402 ft | 137 kts | 214° |
| 2026-05-04 17:38 | 57.70741 | 12.32047 | 1210 ft | 138 kts | 212° |
| 2026-05-04 17:38 | 57.69865 | 12.31246 | 1021 ft | 139 kts | 213° |
| 2026-05-04 17:39 | 57.68093 | 12.29630 | 666 ft | 139 kts | 211° |
| 2026-05-04 17:39 | 57.67235 | 12.28850 | 515 ft | 130 kts | 210° |
| 2026-05-04 17:39 | 57.66510 | 12.28183 | 507 ft | 91 kts | 206° |
| 2026-05-04 17:40 | 57.66087 | 12.27800 | 505 ft | 45 kts | 206° |
| 2026-05-04 17:40 | 57.65809 | 12.27666 | 504 ft | 32 kts | 177° |
| 2026-05-04 17:40 | 57.65716 | 12.27759 | 505 ft | 12 kts | 90° |
| 2026-05-04 17:40 | 57.65776 | 12.27865 | 506 ft | 12 kts | 24° |
| 2026-05-04 17:41 | 57.65856 | 12.27938 | 506 ft | 13 kts | 26° |
| 2026-05-04 17:41 | 57.65941 | 12.28015 | 507 ft | 13 kts | 25° |
| 2026-05-04 17:41 | 57.66029 | 12.28094 | 507 ft | 13 kts | 26° |
| 2026-05-04 17:41 | 57.66118 | 12.28177 | 507 ft | 14 kts | 25° |
| 2026-05-04 17:42 | 57.66208 | 12.28258 | 508 ft | 14 kts | 26° |
| 2026-05-04 17:42 | 57.66300 | 12.28342 | 509 ft | 14 kts | 25° |
| 2026-05-04 17:42 | 57.66394 | 12.28426 | 509 ft | 15 kts | 26° |
| 2026-05-04 17:42 | 57.66492 | 12.28517 | 509 ft | 15 kts | 26° |
| 2026-05-04 17:43 | 57.66588 | 12.28604 | 510 ft | 15 kts | 25° |
| 2026-05-04 17:43 | 57.66684 | 12.28692 | 510 ft | 15 kts | 26° |
| 2026-05-04 17:43 | 57.66782 | 12.28778 | 511 ft | 15 kts | 25° |
| 2026-05-04 17:43 | 57.66819 | 12.28923 | 511 ft | 13 kts | 111° |
| 2026-05-04 17:44 | 57.66779 | 12.29077 | 512 ft | 11 kts | 117° |
| 2026-05-04 17:44 | 57.66785 | 12.29179 | 512 ft | 9 kts | 32° |
| 2026-05-04 17:44 | 57.66852 | 12.29236 | 512 ft | 10 kts | 26° |
| 2026-05-04 17:44 | 57.66863 | 12.29326 | 513 ft | 7 kts | 115° |
| 2026-05-04 17:45 | 57.66848 | 12.29382 | 513 ft | 1 kts | 115° |
| 2026-05-04 17:45 | 57.66848 | 12.29386 | 513 ft | 0 kts | 115° |